»·PEaware :: N65710 KHHR-KCNO

N65710 :: KHHR-KCNO

FLIGHT INFORMATION

Flight Status: Arrived
Operator: Privately registered:
United States
More flights under this callsign
Pilot: Duc N. (9209)
Aircraft: CESSNA 172 SKYHAWK
(C172)
More flights by this aircraft type
Origin: KHHR Northrop/Hawthorne Mun
United States
Destination: KCNO Chino
United States
More flights between these airports :: More routes between these airports
Route: +LIMBO V64 SLI V8 PDZ
File this flight plan on PilotEdge
Remarks: SCTN7
Altitude:
(Current/Filed)
5,000ft
Speed:
(Current/Filed)
0kts
Departed: 12-Oct-17 08:55 PM
Arrived: 12-Oct-17 09:48 PM
Distance/Time
Traveled:
35nm/0:53
Distance/Time
To Go:
Arrived

Flight Plot

Page will automatically refresh every two minutes.


Map Options




Map Legend


Flown Route
Filed Route
Departure Airport
Arrival Airport
Navaid (VOR, NDB)
Fix

Horizontal Profiles

Position Reports

Time Latitude Longitude Heading Altitude Ground
Speed
12-Oct-17 20:47 33.921989 -118.329799 351 69ft 0kts
12-Oct-17 20:48 33.921996 -118.329800 351 69ft 0kts
12-Oct-17 20:49 33.922016 -118.329803 351 69ft 0kts
12-Oct-17 20:50 33.922033 -118.329806 351 69ft 0kts
12-Oct-17 20:51 33.922036 -118.329807 351 69ft 0kts
12-Oct-17 20:52 33.922039 -118.329807 351 69ft 0kts
12-Oct-17 20:53 33.922041 -118.329808 351 69ft 0kts
12-Oct-17 20:54 33.922044 -118.329808 351 69ft 0kts
12-Oct-17 20:55 33.922046 -118.329809 351 69ft 0kts
12-Oct-17 20:56 33.922361 -118.329491 73 69ft 12kts
12-Oct-17 20:57 33.922722 -118.326964 3 69ft 0kts
12-Oct-17 20:58 33.922728 -118.326963 3 69ft 0kts
12-Oct-17 20:59 33.922658 -118.342592 268 358ft 78kts
12-Oct-17 21:00 33.910055 -118.363619 218 1172ft 83kts
12-Oct-17 21:01 33.891408 -118.380502 221 1954ft 84kts
12-Oct-17 21:02 33.874384 -118.395328 220 2598ft 88kts
12-Oct-17 21:03 33.854198 -118.413569 220 3273ft 92kts
12-Oct-17 21:04 33.833763 -118.432244 220 3938ft 91kts
12-Oct-17 21:05 33.812841 -118.443948 182 4597ft 83kts
12-Oct-17 21:06 33.789557 -118.444471 181 5229ft 79kts
12-Oct-17 21:07 33.767382 -118.444771 171 5764ft 79kts
12-Oct-17 21:08 33.764599 -118.415654 89 5068ft 97kts
12-Oct-17 21:09 33.764224 -118.379661 84 4988ft 106kts
12-Oct-17 21:10 33.765308 -118.344673 84 4998ft 105kts
12-Oct-17 21:11 33.768994 -118.309563 83 5000ft 106kts
12-Oct-17 21:12 33.772454 -118.274247 83 5000ft 107kts
12-Oct-17 21:13 33.775288 -118.236519 82 5040ft 115kts
12-Oct-17 21:14 33.775735 -118.198192 83 4996ft 112kts
12-Oct-17 21:15 33.776094 -118.160840 83 4999ft 111kts
12-Oct-17 21:16 33.776478 -118.123552 88 4995ft 113kts
12-Oct-17 21:17 33.779608 -118.084051 81 5000ft 121kts
12-Oct-17 21:18 33.782988 -118.044434 78 4990ft 115kts
12-Oct-17 21:19 33.793253 -118.009446 64 4994ft 107kts
12-Oct-17 21:20 33.803078 -117.976961 64 4991ft 101kts
12-Oct-17 21:21 33.812543 -117.945435 64 4995ft 100kts
12-Oct-17 21:22 33.821997 -117.913868 64 4996ft 100kts
12-Oct-17 21:23 33.831497 -117.882162 64 4989ft 103kts
12-Oct-17 21:24 33.840214 -117.848563 73 5008ft 107kts
12-Oct-17 21:25 33.845934 -117.813287 73 5003ft 106kts
12-Oct-17 21:26 33.851513 -117.778986 70 5002ft 103kts
12-Oct-17 21:27 33.858722 -117.745832 69 5003ft 101kts
12-Oct-17 21:28 33.866290 -117.713139 66 5005ft 101kts
12-Oct-17 21:29 33.874833 -117.680914 66 5008ft 101kts
12-Oct-17 21:30 33.883492 -117.648404 66 4673ft 109kts
12-Oct-17 21:31 33.893915 -117.614137 63 4420ft 104kts
12-Oct-17 21:32 33.904117 -117.582196 63 4397ft 103kts
12-Oct-17 21:33 33.914427 -117.549566 63 4414ft 104kts
12-Oct-17 21:34 33.924402 -117.517005 65 4412ft 102kts
12-Oct-17 21:36 33.933301 -117.484417 65 4417ft 102kts
12-Oct-17 21:37 33.942642 -117.451524 65 4415ft 104kts
12-Oct-17 21:38 33.953282 -117.419057 61 4404ft 106kts
12-Oct-17 21:39 33.965520 -117.385683 61 4424ft 111kts
12-Oct-17 21:40 33.979333 -117.352431 37 4424ft 109kts
12-Oct-17 21:41 34.001297 -117.328154 67 4400ft 105kts
12-Oct-17 21:42 33.987589 -117.332091 246 4443ft 86kts
12-Oct-17 21:43 33.977850 -117.359029 268 4429ft 86kts
12-Oct-17 21:44 33.976407 -117.387852 268 3949ft 92kts
12-Oct-17 21:45 33.976576 -117.420476 273 3395ft 105kts
12-Oct-17 21:46 33.974941 -117.455080 267 3031ft 103kts
12-Oct-17 21:47 33.974064 -117.486791 274 2950ft 94kts
12-Oct-17 21:48 33.975682 -117.519455 277 2484ft 94kts
12-Oct-17 21:49 33.977361 -117.549376 261 2095ft 77kts
12-Oct-17 21:50 33.976609 -117.577411 267 1671ft 81kts
12-Oct-17 21:51 33.976263 -117.606746 272 1049ft 86kts
12-Oct-17 21:52 33.975842 -117.633166 268 658ft 58kts
12-Oct-17 21:53 33.975751 -117.640235 267 655ft 8kts
12-Oct-17 21:54 33.975788 -117.642629 269 655ft 17kts
12-Oct-17 21:55 33.977301 -117.643496 99 655ft 2kts
12-Oct-17 21:56 33.977336 -117.636433 86 655ft 22kts
12-Oct-17 21:57 33.976582 -117.631034 181 655ft 0kts
12-Oct-17 21:58 33.976575 -117.631034 181 655ft 0kts

Navigation Log

Ident Type
1. KHHR Airport
2. LIMBO Fix
3. WILMA Fix
4. SLI Navaid
5. AHEIM Fix
6. OLLIE Fix
7. POXKU Fix
8. EBITE Fix
9. PDZ Navaid
10. KCNO Airport